sensor_id;sensor_type;location;lat;lon;timestamp;temperature;humidity
59311;DHT22;45078;51.654;21.250;2023-07-28T00:02:07;13.10;99.90
59311;DHT22;45078;51.654;21.250;2023-07-28T00:04:35;13.10;99.90
59311;DHT22;45078;51.654;21.250;2023-07-28T00:07:02;13.10;99.90
59311;DHT22;45078;51.654;21.250;2023-07-28T00:09:28;13.20;99.90
59311;DHT22;45078;51.654;21.250;2023-07-28T00:11:58;13.20;99.90
59311;DHT22;45078;51.654;21.250;2023-07-28T00:14:25;13.20;99.90
59311;DHT22;45078;51.654;21.250;2023-07-28T00:16:52;13.30;99.90
59311;DHT22;45078;51.654;21.250;2023-07-28T00:19:18;13.30;99.90
59311;DHT22;45078;51.654;21.250;2023-07-28T00:21:49;13.30;99.90
59311;DHT22;45078;51.654;21.250;2023-07-28T00:24:16;13.40;99.90
59311;DHT22;45078;51.654;21.250;2023-07-28T00:26:41;13.40;99.90
59311;DHT22;45078;51.654;21.250;2023-07-28T00:29:07;13.40;99.90
59311;DHT22;45078;51.654;21.250;2023-07-28T00:31:33;13.40;99.90
59311;DHT22;45078;51.654;21.250;2023-07-28T00:33:59;13.40;99.90
59311;DHT22;45078;51.654;21.250;2023-07-28T00:36:25;13.40;99.90
59311;DHT22;45078;51.654;21.250;2023-07-28T00:38:51;13.40;99.90
59311;DHT22;45078;51.654;21.250;2023-07-28T00:41:17;13.40;99.90
59311;DHT22;45078;51.654;21.250;2023-07-28T00:43:43;13.40;99.90
59311;DHT22;45078;51.654;21.250;2023-07-28T00:46:09;13.40;99.90
59311;DHT22;45078;51.654;21.250;2023-07-28T00:48:35;13.40;99.90
59311;DHT22;45078;51.654;21.250;2023-07-28T00:51:02;13.40;99.90
59311;DHT22;45078;51.654;21.250;2023-07-28T00:53:29;13.40;99.90
59311;DHT22;45078;51.654;21.250;2023-07-28T00:55:55;13.40;99.90
59311;DHT22;45078;51.654;21.250;2023-07-28T00:58:21;13.40;99.90
59311;DHT22;45078;51.654;21.250;2023-07-28T01:00:47;13.50;99.90
59311;DHT22;45078;51.654;21.250;2023-07-28T01:03:14;13.50;99.90
59311;DHT22;45078;51.654;21.250;2023-07-28T01:06:06;13.40;99.90
59311;DHT22;45078;51.654;21.250;2023-07-28T01:11:11;13.40;99.90
59311;DHT22;45078;51.654;21.250;2023-07-28T01:13:37;13.40;99.90
59311;DHT22;45078;51.654;21.250;2023-07-28T01:16:02;13.50;99.90
59311;DHT22;45078;51.654;21.250;2023-07-28T01:18:28;13.50;99.90
59311;DHT22;45078;51.654;21.250;2023-07-28T01:20:56;13.50;99.90
59311;DHT22;45078;51.654;21.250;2023-07-28T01:26:38;13.50;99.90
59311;DHT22;45078;51.654;21.250;2023-07-28T01:29:05;13.50;99.90
59311;DHT22;45078;51.654;21.250;2023-07-28T01:31:31;13.60;99.90
59311;DHT22;45078;51.654;21.250;2023-07-28T01:33:56;13.60;99.90
59311;DHT22;45078;51.654;21.250;2023-07-28T01:36:22;13.60;99.90
59311;DHT22;45078;51.654;21.250;2023-07-28T01:38:48;13.60;99.90
59311;DHT22;45078;51.654;21.250;2023-07-28T01:41:14;13.60;99.90
59311;DHT22;45078;51.654;21.250;2023-07-28T01:43:40;13.60;99.90
59311;DHT22;45078;51.654;21.250;2023-07-28T01:46:07;13.60;99.90
59311;DHT22;45078;51.654;21.250;2023-07-28T01:48:33;13.70;99.90
59311;DHT22;45078;51.654;21.250;2023-07-28T01:50:59;13.70;99.90
59311;DHT22;45078;51.654;21.250;2023-07-28T01:53:24;13.70;99.90
59311;DHT22;45078;51.654;21.250;2023-07-28T01:55:50;13.60;99.90
59311;DHT22;45078;51.654;21.250;2023-07-28T01:58:16;13.70;99.90
59311;DHT22;45078;51.654;21.250;2023-07-28T02:00:42;13.70;99.90
59311;DHT22;45078;51.654;21.250;2023-07-28T02:03:07;13.70;99.90
59311;DHT22;45078;51.654;21.250;2023-07-28T02:05:33;13.70;99.90
59311;DHT22;45078;51.654;21.250;2023-07-28T02:07:59;13.70;99.90
59311;DHT22;45078;51.654;21.250;2023-07-28T02:10:26;13.70;99.90
59311;DHT22;45078;51.654;21.250;2023-07-28T02:12:52;13.70;99.90
59311;DHT22;45078;51.654;21.250;2023-07-28T02:15:18;13.70;99.90
59311;DHT22;45078;51.654;21.250;2023-07-28T02:17:44;13.70;99.90
59311;DHT22;45078;51.654;21.250;2023-07-28T02:22:45;13.70;99.90
59311;DHT22;45078;51.654;21.250;2023-07-28T02:25:11;13.60;99.90
59311;DHT22;45078;51.654;21.250;2023-07-28T02:27:37;13.60;99.90
59311;DHT22;45078;51.654;21.250;2023-07-28T02:30:04;13.70;99.90
59311;DHT22;45078;51.654;21.250;2023-07-28T02:32:30;13.70;99.90
59311;DHT22;45078;51.654;21.250;2023-07-28T02:34:57;13.80;99.90
59311;DHT22;45078;51.654;21.250;2023-07-28T02:37:23;13.80;99.90
59311;DHT22;45078;51.654;21.250;2023-07-28T02:39:48;13.80;99.90
59311;DHT22;45078;51.654;21.250;2023-07-28T02:42:14;13.90;99.90
59311;DHT22;45078;51.654;21.250;2023-07-28T02:44:40;13.90;99.90
59311;DHT22;45078;51.654;21.250;2023-07-28T02:47:06;13.90;99.90
59311;DHT22;45078;51.654;21.250;2023-07-28T02:49:31;14.00;99.90
59311;DHT22;45078;51.654;21.250;2023-07-28T02:51:57;14.00;99.90
59311;DHT22;45078;51.654;21.250;2023-07-28T02:54:23;14.10;99.90
59311;DHT22;45078;51.654;21.250;2023-07-28T02:56:50;14.20;99.90
59311;DHT22;45078;51.654;21.250;2023-07-28T02:59:16;14.20;99.90
59311;DHT22;45078;51.654;21.250;2023-07-28T03:01:42;14.20;99.90
59311;DHT22;45078;51.654;21.250;2023-07-28T03:04:08;14.30;99.90
59311;DHT22;45078;51.654;21.250;2023-07-28T03:06:33;14.30;99.90
59311;DHT22;45078;51.654;21.250;2023-07-28T03:08:59;14.40;99.90
59311;DHT22;45078;51.654;21.250;2023-07-28T03:11:25;14.60;99.90
59311;DHT22;45078;51.654;21.250;2023-07-28T03:13:51;14.60;99.90
59311;DHT22;45078;51.654;21.250;2023-07-28T03:16:17;14.70;99.90
59311;DHT22;45078;51.654;21.250;2023-07-28T03:18:42;14.80;99.90
59311;DHT22;45078;51.654;21.250;2023-07-28T03:21:09;14.80;99.90
59311;DHT22;45078;51.654;21.250;2023-07-28T03:23:35;14.80;99.90
59311;DHT22;45078;51.654;21.250;2023-07-28T03:26:01;14.70;99.90
59311;DHT22;45078;51.654;21.250;2023-07-28T03:28:26;14.70;99.90
59311;DHT22;45078;51.654;21.250;2023-07-28T03:30:52;14.70;99.90
59311;DHT22;45078;51.654;21.250;2023-07-28T03:33:18;14.70;99.90
59311;DHT22;45078;51.654;21.250;2023-07-28T03:35:44;14.70;99.90
59311;DHT22;45078;51.654;21.250;2023-07-28T03:38:09;14.70;99.90
59311;DHT22;45078;51.654;21.250;2023-07-28T03:40:35;14.70;99.90
59311;DHT22;45078;51.654;21.250;2023-07-28T03:43:02;14.70;99.90
59311;DHT22;45078;51.654;21.250;2023-07-28T03:45:27;14.70;99.90
59311;DHT22;45078;51.654;21.250;2023-07-28T03:47:53;14.70;99.90
59311;DHT22;45078;51.654;21.250;2023-07-28T03:50:19;14.70;99.90
59311;DHT22;45078;51.654;21.250;2023-07-28T03:52:45;14.70;99.90
59311;DHT22;45078;51.654;21.250;2023-07-28T03:55:11;14.70;99.90
59311;DHT22;45078;51.654;21.250;2023-07-28T03:57:36;14.70;99.90
59311;DHT22;45078;51.654;21.250;2023-07-28T04:00:02;14.70;99.90
59311;DHT22;45078;51.654;21.250;2023-07-28T04:02:29;14.70;99.90
59311;DHT22;45078;51.654;21.250;2023-07-28T04:04:55;14.70;99.90
59311;DHT22;45078;51.654;21.250;2023-07-28T04:07:21;14.80;99.90
59311;DHT22;45078;51.654;21.250;2023-07-28T04:09:47;14.80;99.90
59311;DHT22;45078;51.654;21.250;2023-07-28T04:12:13;14.80;99.90
59311;DHT22;45078;51.654;21.250;2023-07-28T04:14:38;14.80;99.90
59311;DHT22;45078;51.654;21.250;2023-07-28T04:17:04;14.80;99.90
59311;DHT22;45078;51.654;21.250;2023-07-28T04:19:30;14.90;99.90
59311;DHT22;45078;51.654;21.250;2023-07-28T04:22:00;14.90;99.90
59311;DHT22;45078;51.654;21.250;2023-07-28T04:24:26;14.90;99.90
59311;DHT22;45078;51.654;21.250;2023-07-28T04:26:53;14.90;99.90
59311;DHT22;45078;51.654;21.250;2023-07-28T04:29:18;14.90;99.90
59311;DHT22;45078;51.654;21.250;2023-07-28T04:31:44;14.90;99.90
59311;DHT22;45078;51.654;21.250;2023-07-28T04:34:10;14.90;99.90
59311;DHT22;45078;51.654;21.250;2023-07-28T04:36:36;14.90;99.90
59311;DHT22;45078;51.654;21.250;2023-07-28T04:39:01;14.80;99.90
59311;DHT22;45078;51.654;21.250;2023-07-28T04:41:27;14.90;99.90
59311;DHT22;45078;51.654;21.250;2023-07-28T04:43:53;14.80;99.90
59311;DHT22;45078;51.654;21.250;2023-07-28T04:46:19;14.80;99.90
59311;DHT22;45078;51.654;21.250;2023-07-28T04:48:45;14.80;99.90
59311;DHT22;45078;51.654;21.250;2023-07-28T04:51:11;14.80;99.90
59311;DHT22;45078;51.654;21.250;2023-07-28T04:53:37;14.90;99.90
59311;DHT22;45078;51.654;21.250;2023-07-28T04:56:03;14.90;99.90
59311;DHT22;45078;51.654;21.250;2023-07-28T04:58:29;14.90;99.90
59311;DHT22;45078;51.654;21.250;2023-07-28T05:00:55;14.90;99.90
59311;DHT22;45078;51.654;21.250;2023-07-28T05:03:20;14.90;99.90
59311;DHT22;45078;51.654;21.250;2023-07-28T05:05:46;14.90;99.90
59311;DHT22;45078;51.654;21.250;2023-07-28T05:08:12;15.00;99.90
59311;DHT22;45078;51.654;21.250;2023-07-28T05:10:37;15.10;99.90
59311;DHT22;45078;51.654;21.250;2023-07-28T05:13:03;15.10;99.90
59311;DHT22;45078;51.654;21.250;2023-07-28T05:15:30;15.20;99.90
59311;DHT22;45078;51.654;21.250;2023-07-28T05:17:56;15.20;99.90
59311;DHT22;45078;51.654;21.250;2023-07-28T05:20:21;15.30;99.90
59311;DHT22;45078;51.654;21.250;2023-07-28T05:22:47;15.30;99.90
59311;DHT22;45078;51.654;21.250;2023-07-28T05:25:13;15.40;99.90
59311;DHT22;45078;51.654;21.250;2023-07-28T05:27:40;15.50;99.90
59311;DHT22;45078;51.654;21.250;2023-07-28T05:30:06;15.50;99.90
59311;DHT22;45078;51.654;21.250;2023-07-28T05:32:32;15.50;99.90
59311;DHT22;45078;51.654;21.250;2023-07-28T05:34:58;15.50;99.90
59311;DHT22;45078;51.654;21.250;2023-07-28T05:37:24;15.60;99.90
59311;DHT22;45078;51.654;21.250;2023-07-28T05:39:50;15.60;99.90
59311;DHT22;45078;51.654;21.250;2023-07-28T05:42:15;15.60;99.90
59311;DHT22;45078;51.654;21.250;2023-07-28T05:44:41;15.70;99.90
59311;DHT22;45078;51.654;21.250;2023-07-28T05:47:07;15.70;99.90
59311;DHT22;45078;51.654;21.250;2023-07-28T05:49:33;15.60;99.90
59311;DHT22;45078;51.654;21.250;2023-07-28T05:51:58;15.70;99.90
59311;DHT22;45078;51.654;21.250;2023-07-28T05:54:24;15.70;99.90
59311;DHT22;45078;51.654;21.250;2023-07-28T05:56:50;15.70;99.90
59311;DHT22;45078;51.654;21.250;2023-07-28T05:59:16;15.80;99.90
59311;DHT22;45078;51.654;21.250;2023-07-28T06:01:41;15.80;99.90
59311;DHT22;45078;51.654;21.250;2023-07-28T06:04:07;15.80;99.90
59311;DHT22;45078;51.654;21.250;2023-07-28T06:06:33;15.90;99.90
59311;DHT22;45078;51.654;21.250;2023-07-28T06:08:59;15.90;99.90
59311;DHT22;45078;51.654;21.250;2023-07-28T06:11:24;16.00;99.90
59311;DHT22;45078;51.654;21.250;2023-07-28T06:13:50;16.00;99.90
59311;DHT22;45078;51.654;21.250;2023-07-28T06:16:16;16.10;99.90
59311;DHT22;45078;51.654;21.250;2023-07-28T06:18:42;16.10;99.90
59311;DHT22;45078;51.654;21.250;2023-07-28T06:21:08;16.20;99.90
59311;DHT22;45078;51.654;21.250;2023-07-28T06:23:33;16.20;99.90
59311;DHT22;45078;51.654;21.250;2023-07-28T06:25:59;16.20;99.90
59311;DHT22;45078;51.654;21.250;2023-07-28T06:28:25;16.10;99.90
59311;DHT22;45078;51.654;21.250;2023-07-28T06:30:55;16.10;99.90
59311;DHT22;45078;51.654;21.250;2023-07-28T06:33:21;16.10;99.90
59311;DHT22;45078;51.654;21.250;2023-07-28T06:35:47;16.00;99.90
59311;DHT22;45078;51.654;21.250;2023-07-28T06:38:12;15.90;99.90
59311;DHT22;45078;51.654;21.250;2023-07-28T06:40:38;15.90;99.90
59311;DHT22;45078;51.654;21.250;2023-07-28T06:43:04;15.80;99.90
59311;DHT22;45078;51.654;21.250;2023-07-28T06:45:30;15.70;99.90
59311;DHT22;45078;51.654;21.250;2023-07-28T06:47:56;15.60;99.90
59311;DHT22;45078;51.654;21.250;2023-07-28T06:50:21;15.50;99.90
59311;DHT22;45078;51.654;21.250;2023-07-28T06:52:47;15.40;99.90
59311;DHT22;45078;51.654;21.250;2023-07-28T06:55:15;15.30;99.90
59311;DHT22;45078;51.654;21.250;2023-07-28T06:57:40;15.30;99.90
59311;DHT22;45078;51.654;21.250;2023-07-28T07:00:07;15.30;99.90
59311;DHT22;45078;51.654;21.250;2023-07-28T07:02:35;15.20;99.90
59311;DHT22;45078;51.654;21.250;2023-07-28T07:05:01;15.10;99.90
59311;DHT22;45078;51.654;21.250;2023-07-28T07:07:27;15.10;99.90
59311;DHT22;45078;51.654;21.250;2023-07-28T07:09:53;15.00;99.90
59311;DHT22;45078;51.654;21.250;2023-07-28T07:12:19;15.00;99.90
59311;DHT22;45078;51.654;21.250;2023-07-28T07:14:47;15.00;99.90
59311;DHT22;45078;51.654;21.250;2023-07-28T07:17:13;15.10;99.90
59311;DHT22;45078;51.654;21.250;2023-07-28T07:19:39;15.10;99.90
59311;DHT22;45078;51.654;21.250;2023-07-28T07:22:05;15.20;99.90
59311;DHT22;45078;51.654;21.250;2023-07-28T07:24:31;15.20;99.90
59311;DHT22;45078;51.654;21.250;2023-07-28T07:26:57;15.20;99.90
59311;DHT22;45078;51.654;21.250;2023-07-28T07:29:23;15.20;99.90
59311;DHT22;45078;51.654;21.250;2023-07-28T07:31:49;15.30;99.90
59311;DHT22;45078;51.654;21.250;2023-07-28T07:34:20;15.30;99.90
59311;DHT22;45078;51.654;21.250;2023-07-28T07:36:46;15.30;99.90
59311;DHT22;45078;51.654;21.250;2023-07-28T07:39:12;15.40;99.90
59311;DHT22;45078;51.654;21.250;2023-07-28T07:41:37;15.40;99.90
59311;DHT22;45078;51.654;21.250;2023-07-28T07:44:03;15.50;99.90
59311;DHT22;45078;51.654;21.250;2023-07-28T07:46:29;15.50;99.90
59311;DHT22;45078;51.654;21.250;2023-07-28T07:48:55;15.50;99.90
59311;DHT22;45078;51.654;21.250;2023-07-28T07:51:20;15.50;99.90
59311;DHT22;45078;51.654;21.250;2023-07-28T07:53:46;15.60;99.90
59311;DHT22;45078;51.654;21.250;2023-07-28T07:56:12;15.70;99.90
59311;DHT22;45078;51.654;21.250;2023-07-28T07:58:38;15.70;99.90
59311;DHT22;45078;51.654;21.250;2023-07-28T08:01:04;15.80;99.90
59311;DHT22;45078;51.654;21.250;2023-07-28T08:03:29;16.00;99.90
59311;DHT22;45078;51.654;21.250;2023-07-28T08:05:57;16.00;99.90
59311;DHT22;45078;51.654;21.250;2023-07-28T08:08:23;16.00;99.90
59311;DHT22;45078;51.654;21.250;2023-07-28T08:10:50;16.10;99.90
59311;DHT22;45078;51.654;21.250;2023-07-28T08:13:16;16.20;99.90
59311;DHT22;45078;51.654;21.250;2023-07-28T08:15:45;16.30;99.90
59311;DHT22;45078;51.654;21.250;2023-07-28T08:18:12;16.40;99.90
59311;DHT22;45078;51.654;21.250;2023-07-28T08:20:38;16.40;99.90
59311;DHT22;45078;51.654;21.250;2023-07-28T08:23:04;16.60;99.90
59311;DHT22;45078;51.654;21.250;2023-07-28T08:25:30;16.70;99.90
59311;DHT22;45078;51.654;21.250;2023-07-28T08:27:55;16.70;99.90
59311;DHT22;45078;51.654;21.250;2023-07-28T08:30:21;16.90;99.90
59311;DHT22;45078;51.654;21.250;2023-07-28T08:32:47;17.10;99.90
59311;DHT22;45078;51.654;21.250;2023-07-28T08:35:14;17.20;99.90
59311;DHT22;45078;51.654;21.250;2023-07-28T08:37:40;17.30;99.90
59311;DHT22;45078;51.654;21.250;2023-07-28T08:40:06;17.40;99.90
59311;DHT22;45078;51.654;21.250;2023-07-28T08:42:39;17.50;99.90
59311;DHT22;45078;51.654;21.250;2023-07-28T08:45:05;17.50;99.90
59311;DHT22;45078;51.654;21.250;2023-07-28T08:47:32;17.50;99.90
59311;DHT22;45078;51.654;21.250;2023-07-28T08:49:58;17.60;99.90
59311;DHT22;45078;51.654;21.250;2023-07-28T08:52:24;17.50;99.90
59311;DHT22;45078;51.654;21.250;2023-07-28T08:54:50;17.50;99.90
59311;DHT22;45078;51.654;21.250;2023-07-28T08:57:16;17.40;99.90
59311;DHT22;45078;51.654;21.250;2023-07-28T08:59:42;17.30;99.90
59311;DHT22;45078;51.654;21.250;2023-07-28T09:02:14;17.30;99.90
59311;DHT22;45078;51.654;21.250;2023-07-28T09:04:42;17.30;99.90
59311;DHT22;45078;51.654;21.250;2023-07-28T09:07:08;17.30;99.90
59311;DHT22;45078;51.654;21.250;2023-07-28T09:09:34;17.40;99.90
59311;DHT22;45078;51.654;21.250;2023-07-28T09:12:00;17.40;99.90
59311;DHT22;45078;51.654;21.250;2023-07-28T09:14:27;17.40;99.90
59311;DHT22;45078;51.654;21.250;2023-07-28T09:16:53;17.40;99.90
59311;DHT22;45078;51.654;21.250;2023-07-28T09:19:20;17.40;99.90
59311;DHT22;45078;51.654;21.250;2023-07-28T09:22:00;17.50;99.90
59311;DHT22;45078;51.654;21.250;2023-07-28T09:24:33;17.50;99.90
59311;DHT22;45078;51.654;21.250;2023-07-28T09:26:59;17.50;99.90
59311;DHT22;45078;51.654;21.250;2023-07-28T09:29:25;17.60;99.90
59311;DHT22;45078;51.654;21.250;2023-07-28T09:31:53;17.60;99.90
59311;DHT22;45078;51.654;21.250;2023-07-28T09:34:28;17.70;99.90
59311;DHT22;45078;51.654;21.250;2023-07-28T09:36:55;17.80;99.90
59311;DHT22;45078;51.654;21.250;2023-07-28T09:39:22;17.80;99.90
59311;DHT22;45078;51.654;21.250;2023-07-28T09:41:47;17.90;99.90
59311;DHT22;45078;51.654;21.250;2023-07-28T09:44:14;18.00;99.90
59311;DHT22;45078;51.654;21.250;2023-07-28T09:47:00;18.30;99.90
59311;DHT22;45078;51.654;21.250;2023-07-28T09:49:41;18.40;99.90
59311;DHT22;45078;51.654;21.250;2023-07-28T09:52:13;18.60;99.90
59311;DHT22;45078;51.654;21.250;2023-07-28T09:54:41;18.80;99.90
59311;DHT22;45078;51.654;21.250;2023-07-28T09:57:12;19.00;99.90
59311;DHT22;45078;51.654;21.250;2023-07-28T09:59:40;19.00;99.90
59311;DHT22;45078;51.654;21.250;2023-07-28T10:02:07;19.10;99.90
59311;DHT22;45078;51.654;21.250;2023-07-28T10:04:33;19.20;99.90
59311;DHT22;45078;51.654;21.250;2023-07-28T10:07:00;19.00;99.90
59311;DHT22;45078;51.654;21.250;2023-07-28T10:09:28;19.00;99.90
59311;DHT22;45078;51.654;21.250;2023-07-28T10:11:56;19.10;99.90
59311;DHT22;45078;51.654;21.250;2023-07-28T10:14:40;19.00;99.90
59311;DHT22;45078;51.654;21.250;2023-07-28T10:17:06;19.10;99.90
59311;DHT22;45078;51.654;21.250;2023-07-28T10:19:36;19.00;99.90
59311;DHT22;45078;51.654;21.250;2023-07-28T10:22:06;18.90;99.90
59311;DHT22;45078;51.654;21.250;2023-07-28T10:27:37;18.80;99.90
59311;DHT22;45078;51.654;21.250;2023-07-28T10:30:08;18.80;99.90
59311;DHT22;45078;51.654;21.250;2023-07-28T10:32:47;18.70;99.90
59311;DHT22;45078;51.654;21.250;2023-07-28T10:37:45;18.60;99.90
59311;DHT22;45078;51.654;21.250;2023-07-28T10:42:52;18.50;99.90
59311;DHT22;45078;51.654;21.250;2023-07-28T10:45:18;18.50;99.90
59311;DHT22;45078;51.654;21.250;2023-07-28T10:47:45;18.40;99.90
59311;DHT22;45078;51.654;21.250;2023-07-28T10:50:11;18.20;99.90
59311;DHT22;45078;51.654;21.250;2023-07-28T10:52:44;18.10;99.90
59311;DHT22;45078;51.654;21.250;2023-07-28T10:55:17;18.10;99.90
59311;DHT22;45078;51.654;21.250;2023-07-28T10:57:44;17.90;99.90
59311;DHT22;45078;51.654;21.250;2023-07-28T11:00:12;17.90;99.90
59311;DHT22;45078;51.654;21.250;2023-07-28T11:02:41;17.70;99.90
59311;DHT22;45078;51.654;21.250;2023-07-28T11:05:11;17.80;99.90
59311;DHT22;45078;51.654;21.250;2023-07-28T11:07:43;17.70;99.90
59311;DHT22;45078;51.654;21.250;2023-07-28T11:10:10;17.70;99.90
59311;DHT22;45078;51.654;21.250;2023-07-28T11:12:44;17.70;99.90
59311;DHT22;45078;51.654;21.250;2023-07-28T11:15:12;17.70;99.90
59311;DHT22;45078;51.654;21.250;2023-07-28T11:17:46;17.60;99.90
59311;DHT22;45078;51.654;21.250;2023-07-28T11:20:20;17.70;99.90
59311;DHT22;45078;51.654;21.250;2023-07-28T11:23:06;17.70;99.90
59311;DHT22;45078;51.654;21.250;2023-07-28T11:25:34;17.70;99.90
59311;DHT22;45078;51.654;21.250;2023-07-28T11:28:04;17.60;99.90
59311;DHT22;45078;51.654;21.250;2023-07-28T11:30:36;17.60;99.90
59311;DHT22;45078;51.654;21.250;2023-07-28T11:33:09;17.60;99.90
59311;DHT22;45078;51.654;21.250;2023-07-28T11:35:38;17.60;99.90
59311;DHT22;45078;51.654;21.250;2023-07-28T11:38:07;17.60;99.90
59311;DHT22;45078;51.654;21.250;2023-07-28T11:40:34;17.70;99.90
59311;DHT22;45078;51.654;21.250;2023-07-28T11:43:01;17.80;99.90
59311;DHT22;45078;51.654;21.250;2023-07-28T11:45:26;17.70;99.90
59311;DHT22;45078;51.654;21.250;2023-07-28T11:48:04;17.70;99.90
59311;DHT22;45078;51.654;21.250;2023-07-28T11:50:37;17.70;99.90
59311;DHT22;45078;51.654;21.250;2023-07-28T11:53:03;17.80;99.90
59311;DHT22;45078;51.654;21.250;2023-07-28T11:55:29;17.80;99.90
59311;DHT22;45078;51.654;21.250;2023-07-28T11:57:55;17.90;99.90
59311;DHT22;45078;51.654;21.250;2023-07-28T12:00:40;17.90;99.90
59311;DHT22;45078;51.654;21.250;2023-07-28T12:03:12;17.90;99.90
59311;DHT22;45078;51.654;21.250;2023-07-28T12:05:39;17.90;99.90
59311;DHT22;45078;51.654;21.250;2023-07-28T12:08:05;18.00;99.90
59311;DHT22;45078;51.654;21.250;2023-07-28T12:10:34;18.00;99.90
59311;DHT22;45078;51.654;21.250;2023-07-28T12:13:07;18.00;99.90
59311;DHT22;45078;51.654;21.250;2023-07-28T12:15:34;18.10;99.90
59311;DHT22;45078;51.654;21.250;2023-07-28T12:18:09;18.20;99.90
59311;DHT22;45078;51.654;21.250;2023-07-28T12:20:39;18.20;99.90
59311;DHT22;45078;51.654;21.250;2023-07-28T12:23:07;18.40;99.90
59311;DHT22;45078;51.654;21.250;2023-07-28T12:25:33;18.60;99.90
59311;DHT22;45078;51.654;21.250;2023-07-28T12:27:59;18.70;99.90
59311;DHT22;45078;51.654;21.250;2023-07-28T12:30:24;18.80;99.90
59311;DHT22;45078;51.654;21.250;2023-07-28T12:32:50;19.00;99.90
59311;DHT22;45078;51.654;21.250;2023-07-28T12:35:16;19.10;99.90
59311;DHT22;45078;51.654;21.250;2023-07-28T12:37:42;19.30;99.90
59311;DHT22;45078;51.654;21.250;2023-07-28T12:40:08;19.20;99.90
59311;DHT22;45078;51.654;21.250;2023-07-28T12:42:35;19.20;99.90
59311;DHT22;45078;51.654;21.250;2023-07-28T12:45:01;19.10;99.90
59311;DHT22;45078;51.654;21.250;2023-07-28T12:47:27;19.00;99.90
59311;DHT22;45078;51.654;21.250;2023-07-28T12:49:53;19.00;99.90
59311;DHT22;45078;51.654;21.250;2023-07-28T12:52:18;19.00;99.90
59311;DHT22;45078;51.654;21.250;2023-07-28T12:54:45;19.10;99.90
59311;DHT22;45078;51.654;21.250;2023-07-28T12:57:11;19.20;99.90
59311;DHT22;45078;51.654;21.250;2023-07-28T12:59:38;19.20;99.90
59311;DHT22;45078;51.654;21.250;2023-07-28T13:02:04;19.30;99.90
59311;DHT22;45078;51.654;21.250;2023-07-28T13:04:30;19.30;99.90
59311;DHT22;45078;51.654;21.250;2023-07-28T13:06:56;19.50;99.90
59311;DHT22;45078;51.654;21.250;2023-07-28T13:09:22;19.60;99.90
59311;DHT22;45078;51.654;21.250;2023-07-28T13:11:47;20.00;99.90
59311;DHT22;45078;51.654;21.250;2023-07-28T13:14:13;20.40;99.90
59311;DHT22;45078;51.654;21.250;2023-07-28T13:16:39;20.70;99.90
59311;DHT22;45078;51.654;21.250;2023-07-28T13:19:05;21.00;99.90
59311;DHT22;45078;51.654;21.250;2023-07-28T13:21:31;21.30;99.90
59311;DHT22;45078;51.654;21.250;2023-07-28T13:23:56;21.20;99.90
59311;DHT22;45078;51.654;21.250;2023-07-28T13:26:22;21.30;99.90
59311;DHT22;45078;51.654;21.250;2023-07-28T13:28:51;21.40;99.90
59311;DHT22;45078;51.654;21.250;2023-07-28T13:31:17;21.30;99.90
59311;DHT22;45078;51.654;21.250;2023-07-28T13:33:44;21.20;99.90
59311;DHT22;45078;51.654;21.250;2023-07-28T13:36:11;21.20;99.90
59311;DHT22;45078;51.654;21.250;2023-07-28T13:38:37;21.10;99.90
59311;DHT22;45078;51.654;21.250;2023-07-28T13:41:05;21.10;99.90
59311;DHT22;45078;51.654;21.250;2023-07-28T13:43:34;21.10;99.90
59311;DHT22;45078;51.654;21.250;2023-07-28T13:46:06;21.10;99.90
59311;DHT22;45078;51.654;21.250;2023-07-28T13:48:33;21.10;99.90
59311;DHT22;45078;51.654;21.250;2023-07-28T13:50:59;21.00;99.90
59311;DHT22;45078;51.654;21.250;2023-07-28T13:53:24;20.80;99.90
59311;DHT22;45078;51.654;21.250;2023-07-28T13:55:50;20.70;99.90
59311;DHT22;45078;51.654;21.250;2023-07-28T13:58:16;20.70;99.90
59311;DHT22;45078;51.654;21.250;2023-07-28T14:00:43;20.70;99.90
59311;DHT22;45078;51.654;21.250;2023-07-28T14:03:09;20.60;99.90
59311;DHT22;45078;51.654;21.250;2023-07-28T14:05:35;20.70;99.90
59311;DHT22;45078;51.654;21.250;2023-07-28T14:08:01;20.80;99.90
59311;DHT22;45078;51.654;21.250;2023-07-28T14:10:27;20.90;99.90
59311;DHT22;45078;51.654;21.250;2023-07-28T14:12:53;21.40;99.90
59311;DHT22;45078;51.654;21.250;2023-07-28T14:15:19;21.70;99.90
59311;DHT22;45078;51.654;21.250;2023-07-28T14:17:45;21.70;99.90
59311;DHT22;45078;51.654;21.250;2023-07-28T14:20:11;21.80;99.90
59311;DHT22;45078;51.654;21.250;2023-07-28T14:22:37;21.50;99.90
59311;DHT22;45078;51.654;21.250;2023-07-28T14:25:03;21.30;99.90
59311;DHT22;45078;51.654;21.250;2023-07-28T14:27:29;21.20;99.90
59311;DHT22;45078;51.654;21.250;2023-07-28T14:29:55;21.10;99.90
59311;DHT22;45078;51.654;21.250;2023-07-28T14:32:21;21.30;99.90
59311;DHT22;45078;51.654;21.250;2023-07-28T14:34:47;21.30;99.90
59311;DHT22;45078;51.654;21.250;2023-07-28T14:37:13;21.30;99.90
59311;DHT22;45078;51.654;21.250;2023-07-28T14:39:39;21.50;99.90
59311;DHT22;45078;51.654;21.250;2023-07-28T14:42:05;21.60;99.90
59311;DHT22;45078;51.654;21.250;2023-07-28T14:44:31;21.40;99.90
59311;DHT22;45078;51.654;21.250;2023-07-28T14:46:56;21.40;99.90
59311;DHT22;45078;51.654;21.250;2023-07-28T14:49:23;21.30;99.90
59311;DHT22;45078;51.654;21.250;2023-07-28T14:51:49;21.40;99.90
59311;DHT22;45078;51.654;21.250;2023-07-28T14:54:14;21.50;99.90
59311;DHT22;45078;51.654;21.250;2023-07-28T14:56:40;21.70;99.90
59311;DHT22;45078;51.654;21.250;2023-07-28T14:59:06;21.50;99.90
59311;DHT22;45078;51.654;21.250;2023-07-28T15:01:31;21.40;99.90
59311;DHT22;45078;51.654;21.250;2023-07-28T15:03:58;21.40;99.90
59311;DHT22;45078;51.654;21.250;2023-07-28T15:06:24;21.40;99.90
59311;DHT22;45078;51.654;21.250;2023-07-28T15:08:50;21.50;99.90
59311;DHT22;45078;51.654;21.250;2023-07-28T15:11:16;21.50;99.90
59311;DHT22;45078;51.654;21.250;2023-07-28T15:13:43;21.60;99.90
59311;DHT22;45078;51.654;21.250;2023-07-28T15:16:10;21.70;99.90
59311;DHT22;45078;51.654;21.250;2023-07-28T15:18:35;21.90;99.90
59311;DHT22;45078;51.654;21.250;2023-07-28T15:21:01;21.90;99.90
59311;DHT22;45078;51.654;21.250;2023-07-28T15:23:27;21.90;99.90
59311;DHT22;45078;51.654;21.250;2023-07-28T15:25:53;21.80;99.90
59311;DHT22;45078;51.654;21.250;2023-07-28T15:28:22;21.80;99.90
59311;DHT22;45078;51.654;21.250;2023-07-28T15:30:49;21.80;99.90